aviador You're here:

LZPP Decoded Metar

PIESTANY in SLOVAKIA
Report Time2017-08-19 01:30:00
UTC Time2017-08-19 01:52:45
Flight Rules vfr VFR
Wind210° at 03 kt
W.Decomp.*RWY 19: 2.9 kt HW 0.9 kt RCW
W.Rank210° ranks 22
Current wind is below 210° avg. (5.1)
Visibility9999 m
Phenomena:N/A
Clouds:N/A
Expected CloudBase > 2,800 ft AGL from Temp-Dew spread
CeilingNone
Temp20°C (ISA +6)
Dew Point13°C (64% RH)
AAT19.8°C
QNH1014 hPa
Density Alt1,404 ft
Elevation528 ft
Report Wrong Elevation
Raw Report
LZPP 190130Z AUTO 21003KT 150V230 9999 NCD 20/13 Q1014=

Extra information for LZPP:More info

Metar Taf Metar & Taf Last 4 Metars F.Rules Stats Wind Profile Meteogram Temp Stats Airport Information Weather charts Add Link Nearby VenuesMetar ALERT Operation Metar Decoded Social comments